sensor_id;sensor_type;location;lat;lon;timestamp;P1;durP1;ratioP1;P2;durP2;ratioP2
20721;SDS011;10522;52.198;9.890;2024-02-04T00:02:10;8.13;;;4.67;;
20721;SDS011;10522;52.198;9.890;2024-02-04T00:04:39;8.63;;;4.07;;
20721;SDS011;10522;52.198;9.890;2024-02-04T00:07:08;7.67;;;4.00;;
20721;SDS011;10522;52.198;9.890;2024-02-04T00:09:34;7.70;;;4.27;;
20721;SDS011;10522;52.198;9.890;2024-02-04T00:12:00;12.53;;;4.00;;
20721;SDS011;10522;52.198;9.890;2024-02-04T00:14:28;5.47;;;3.40;;
20721;SDS011;10522;52.198;9.890;2024-02-04T00:16:54;4.40;;;2.93;;
20721;SDS011;10522;52.198;9.890;2024-02-04T00:19:19;9.30;;;3.70;;
20721;SDS011;10522;52.198;9.890;2024-02-04T00:21:45;7.57;;;3.50;;
20721;SDS011;10522;52.198;9.890;2024-02-04T00:24:10;20.00;;;4.20;;
20721;SDS011;10522;52.198;9.890;2024-02-04T00:26:36;5.30;;;3.67;;
20721;SDS011;10522;52.198;9.890;2024-02-04T00:29:02;6.73;;;3.20;;
20721;SDS011;10522;52.198;9.890;2024-02-04T00:31:28;9.27;;;4.00;;
20721;SDS011;10522;52.198;9.890;2024-02-04T00:33:53;9.70;;;4.03;;
20721;SDS011;10522;52.198;9.890;2024-02-04T00:36:19;8.07;;;4.40;;
20721;SDS011;10522;52.198;9.890;2024-02-04T00:38:46;10.67;;;5.33;;
20721;SDS011;10522;52.198;9.890;2024-02-04T00:41:12;7.20;;;4.27;;
20721;SDS011;10522;52.198;9.890;2024-02-04T00:43:37;12.10;;;5.43;;
20721;SDS011;10522;52.198;9.890;2024-02-04T00:46:03;12.40;;;4.87;;
20721;SDS011;10522;52.198;9.890;2024-02-04T00:48:29;12.20;;;5.40;;
20721;SDS011;10522;52.198;9.890;2024-02-04T00:50:55;8.47;;;3.70;;
20721;SDS011;10522;52.198;9.890;2024-02-04T00:53:20;5.67;;;2.53;;
20721;SDS011;10522;52.198;9.890;2024-02-04T00:55:46;9.77;;;3.23;;
20721;SDS011;10522;52.198;9.890;2024-02-04T00:58:11;9.73;;;3.73;;
20721;SDS011;10522;52.198;9.890;2024-02-04T01:00:37;7.30;;;3.70;;
20721;SDS011;10522;52.198;9.890;2024-02-04T01:03:03;7.03;;;3.27;;
20721;SDS011;10522;52.198;9.890;2024-02-04T01:05:28;7.90;;;3.90;;
20721;SDS011;10522;52.198;9.890;2024-02-04T01:07:54;6.77;;;4.30;;
20721;SDS011;10522;52.198;9.890;2024-02-04T01:10:20;10.97;;;5.37;;
20721;SDS011;10522;52.198;9.890;2024-02-04T01:12:45;10.57;;;5.50;;
20721;SDS011;10522;52.198;9.890;2024-02-04T01:15:11;13.03;;;5.80;;
20721;SDS011;10522;52.198;9.890;2024-02-04T01:17:37;10.30;;;5.47;;
20721;SDS011;10522;52.198;9.890;2024-02-04T01:20:03;9.50;;;5.20;;
20721;SDS011;10522;52.198;9.890;2024-02-04T01:22:30;15.07;;;7.03;;
20721;SDS011;10522;52.198;9.890;2024-02-04T01:24:56;8.23;;;5.60;;
20721;SDS011;10522;52.198;9.890;2024-02-04T01:27:21;9.17;;;6.07;;
20721;SDS011;10522;52.198;9.890;2024-02-04T01:29:47;10.47;;;5.83;;
20721;SDS011;10522;52.198;9.890;2024-02-04T01:32:12;9.97;;;6.37;;
20721;SDS011;10522;52.198;9.890;2024-02-04T01:34:38;13.07;;;5.40;;
20721;SDS011;10522;52.198;9.890;2024-02-04T01:37:04;10.07;;;5.80;;
20721;SDS011;10522;52.198;9.890;2024-02-04T01:39:30;8.57;;;4.97;;
20721;SDS011;10522;52.198;9.890;2024-02-04T01:41:56;10.10;;;4.43;;
20721;SDS011;10522;52.198;9.890;2024-02-04T01:44:21;9.97;;;6.90;;
20721;SDS011;10522;52.198;9.890;2024-02-04T01:46:48;10.20;;;5.87;;
20721;SDS011;10522;52.198;9.890;2024-02-04T01:49:14;11.30;;;5.73;;
20721;SDS011;10522;52.198;9.890;2024-02-04T01:51:40;13.33;;;5.90;;
20721;SDS011;10522;52.198;9.890;2024-02-04T01:54:06;9.10;;;5.67;;
20721;SDS011;10522;52.198;9.890;2024-02-04T01:56:32;13.17;;;6.17;;
20721;SDS011;10522;52.198;9.890;2024-02-04T01:58:58;12.07;;;6.93;;
20721;SDS011;10522;52.198;9.890;2024-02-04T02:01:24;10.93;;;7.30;;
20721;SDS011;10522;52.198;9.890;2024-02-04T02:03:51;11.97;;;6.90;;
20721;SDS011;10522;52.198;9.890;2024-02-04T02:06:18;12.10;;;8.87;;
20721;SDS011;10522;52.198;9.890;2024-02-04T02:08:44;16.27;;;8.23;;
20721;SDS011;10522;52.198;9.890;2024-02-04T02:11:11;16.70;;;10.17;;
20721;SDS011;10522;52.198;9.890;2024-02-04T02:13:43;15.97;;;8.57;;
20721;SDS011;10522;52.198;9.890;2024-02-04T02:16:15;16.53;;;10.43;;
20721;SDS011;10522;52.198;9.890;2024-02-04T02:18:46;15.43;;;8.60;;
20721;SDS011;10522;52.198;9.890;2024-02-04T02:26:49;20.37;;;10.17;;
20721;SDS011;10522;52.198;9.890;2024-02-04T02:29:15;15.47;;;9.83;;
20721;SDS011;10522;52.198;9.890;2024-02-04T02:31:41;19.23;;;11.20;;
20721;SDS011;10522;52.198;9.890;2024-02-04T02:34:08;15.10;;;9.00;;
20721;SDS011;10522;52.198;9.890;2024-02-04T02:36:36;12.87;;;7.73;;
20721;SDS011;10522;52.198;9.890;2024-02-04T02:39:17;15.40;;;8.37;;
20721;SDS011;10522;52.198;9.890;2024-02-04T02:41:49;16.70;;;9.23;;
20721;SDS011;10522;52.198;9.890;2024-02-04T02:44:16;12.03;;;7.37;;
20721;SDS011;10522;52.198;9.890;2024-02-04T02:46:43;15.43;;;7.60;;
20721;SDS011;10522;52.198;9.890;2024-02-04T02:49:13;15.37;;;7.93;;
20721;SDS011;10522;52.198;9.890;2024-02-04T02:51:39;14.60;;;9.00;;
20721;SDS011;10522;52.198;9.890;2024-02-04T02:54:05;13.77;;;7.00;;
20721;SDS011;10522;52.198;9.890;2024-02-04T02:56:33;12.00;;;7.10;;
20721;SDS011;10522;52.198;9.890;2024-02-04T02:58:59;14.67;;;7.03;;
20721;SDS011;10522;52.198;9.890;2024-02-04T03:01:25;12.17;;;6.63;;
20721;SDS011;10522;52.198;9.890;2024-02-04T03:03:56;14.10;;;6.63;;
20721;SDS011;10522;52.198;9.890;2024-02-04T03:06:22;7.63;;;6.00;;
20721;SDS011;10522;52.198;9.890;2024-02-04T03:08:48;12.20;;;6.90;;
20721;SDS011;10522;52.198;9.890;2024-02-04T03:11:13;10.57;;;6.10;;
20721;SDS011;10522;52.198;9.890;2024-02-04T03:13:39;8.60;;;5.20;;
20721;SDS011;10522;52.198;9.890;2024-02-04T03:16:14;13.37;;;6.57;;
20721;SDS011;10522;52.198;9.890;2024-02-04T03:18:40;13.87;;;6.87;;
20721;SDS011;10522;52.198;9.890;2024-02-04T03:21:13;8.77;;;5.90;;
20721;SDS011;10522;52.198;9.890;2024-02-04T03:23:42;10.47;;;5.60;;
20721;SDS011;10522;52.198;9.890;2024-02-04T03:26:08;10.90;;;6.97;;
20721;SDS011;10522;52.198;9.890;2024-02-04T03:28:38;11.20;;;6.10;;
20721;SDS011;10522;52.198;9.890;2024-02-04T03:31:03;18.47;;;7.00;;
20721;SDS011;10522;52.198;9.890;2024-02-04T03:33:29;13.80;;;7.50;;
20721;SDS011;10522;52.198;9.890;2024-02-04T03:35:54;15.57;;;8.20;;
20721;SDS011;10522;52.198;9.890;2024-02-04T03:38:20;14.53;;;8.97;;
20721;SDS011;10522;52.198;9.890;2024-02-04T03:40:47;15.87;;;9.00;;
20721;SDS011;10522;52.198;9.890;2024-02-04T03:43:14;15.80;;;8.73;;
20721;SDS011;10522;52.198;9.890;2024-02-04T03:45:40;15.57;;;9.37;;
20721;SDS011;10522;52.198;9.890;2024-02-04T03:48:06;19.23;;;9.10;;
20721;SDS011;10522;52.198;9.890;2024-02-04T03:50:33;13.90;;;9.33;;
20721;SDS011;10522;52.198;9.890;2024-02-04T03:52:58;14.43;;;8.33;;
20721;SDS011;10522;52.198;9.890;2024-02-04T03:55:24;13.47;;;6.77;;
20721;SDS011;10522;52.198;9.890;2024-02-04T03:57:50;15.47;;;6.77;;
20721;SDS011;10522;52.198;9.890;2024-02-04T04:00:16;11.17;;;7.67;;
20721;SDS011;10522;52.198;9.890;2024-02-04T04:02:42;15.17;;;8.13;;
20721;SDS011;10522;52.198;9.890;2024-02-04T04:05:11;12.30;;;6.80;;
20721;SDS011;10522;52.198;9.890;2024-02-04T04:07:39;14.73;;;8.17;;
20721;SDS011;10522;52.198;9.890;2024-02-04T04:10:09;14.83;;;7.27;;
20721;SDS011;10522;52.198;9.890;2024-02-04T04:12:34;10.50;;;7.43;;
20721;SDS011;10522;52.198;9.890;2024-02-04T04:15:00;11.13;;;7.23;;
20721;SDS011;10522;52.198;9.890;2024-02-04T04:17:27;12.07;;;6.90;;
20721;SDS011;10522;52.198;9.890;2024-02-04T04:19:52;10.83;;;6.73;;
20721;SDS011;10522;52.198;9.890;2024-02-04T04:22:18;12.67;;;6.50;;
20721;SDS011;10522;52.198;9.890;2024-02-04T04:24:43;12.73;;;7.07;;
20721;SDS011;10522;52.198;9.890;2024-02-04T04:27:10;13.33;;;6.80;;
20721;SDS011;10522;52.198;9.890;2024-02-04T04:29:36;11.93;;;6.43;;
20721;SDS011;10522;52.198;9.890;2024-02-04T04:32:01;10.10;;;6.20;;
20721;SDS011;10522;52.198;9.890;2024-02-04T04:34:27;11.37;;;6.27;;
20721;SDS011;10522;52.198;9.890;2024-02-04T04:36:53;14.37;;;6.27;;
20721;SDS011;10522;52.198;9.890;2024-02-04T04:39:19;8.73;;;5.43;;
20721;SDS011;10522;52.198;9.890;2024-02-04T04:41:45;8.23;;;5.63;;
20721;SDS011;10522;52.198;9.890;2024-02-04T04:44:11;9.37;;;5.20;;
20721;SDS011;10522;52.198;9.890;2024-02-04T04:46:40;8.10;;;5.57;;
20721;SDS011;10522;52.198;9.890;2024-02-04T04:49:09;8.37;;;5.47;;
20721;SDS011;10522;52.198;9.890;2024-02-04T04:51:35;10.50;;;6.37;;
20721;SDS011;10522;52.198;9.890;2024-02-04T04:54:10;9.77;;;5.97;;
20721;SDS011;10522;52.198;9.890;2024-02-04T04:56:39;9.63;;;5.90;;
20721;SDS011;10522;52.198;9.890;2024-02-04T04:59:06;6.47;;;5.07;;
20721;SDS011;10522;52.198;9.890;2024-02-04T05:01:32;9.43;;;5.70;;
20721;SDS011;10522;52.198;9.890;2024-02-04T05:03:58;9.50;;;4.70;;
20721;SDS011;10522;52.198;9.890;2024-02-04T05:06:23;8.20;;;4.43;;
20721;SDS011;10522;52.198;9.890;2024-02-04T05:08:49;6.47;;;3.90;;
20721;SDS011;10522;52.198;9.890;2024-02-04T05:11:15;4.30;;;3.60;;
20721;SDS011;10522;52.198;9.890;2024-02-04T05:13:41;6.03;;;4.50;;
20721;SDS011;10522;52.198;9.890;2024-02-04T05:16:06;4.93;;;3.87;;
20721;SDS011;10522;52.198;9.890;2024-02-04T05:18:32;6.43;;;2.70;;
20721;SDS011;10522;52.198;9.890;2024-02-04T05:20:58;4.37;;;2.77;;
20721;SDS011;10522;52.198;9.890;2024-02-04T05:23:23;6.33;;;2.80;;
20721;SDS011;10522;52.198;9.890;2024-02-04T05:25:49;5.27;;;2.43;;
20721;SDS011;10522;52.198;9.890;2024-02-04T05:28:15;3.73;;;2.67;;
20721;SDS011;10522;52.198;9.890;2024-02-04T05:30:40;6.17;;;3.10;;
20721;SDS011;10522;52.198;9.890;2024-02-04T05:33:06;6.57;;;2.97;;
20721;SDS011;10522;52.198;9.890;2024-02-04T05:35:31;4.80;;;2.77;;
20721;SDS011;10522;52.198;9.890;2024-02-04T05:37:59;5.10;;;3.17;;
20721;SDS011;10522;52.198;9.890;2024-02-04T05:40:31;3.17;;;2.43;;
20721;SDS011;10522;52.198;9.890;2024-02-04T05:42:56;5.27;;;2.90;;
20721;SDS011;10522;52.198;9.890;2024-02-04T05:45:22;3.33;;;2.80;;
20721;SDS011;10522;52.198;9.890;2024-02-04T05:47:48;4.27;;;2.67;;
20721;SDS011;10522;52.198;9.890;2024-02-04T05:50:15;7.10;;;2.90;;
20721;SDS011;10522;52.198;9.890;2024-02-04T05:52:40;4.83;;;2.90;;
20721;SDS011;10522;52.198;9.890;2024-02-04T05:55:09;4.27;;;2.80;;
20721;SDS011;10522;52.198;9.890;2024-02-04T05:57:35;4.50;;;3.13;;
20721;SDS011;10522;52.198;9.890;2024-02-04T06:00:06;5.67;;;3.00;;
20721;SDS011;10522;52.198;9.890;2024-02-04T06:02:33;5.17;;;3.13;;
20721;SDS011;10522;52.198;9.890;2024-02-04T06:04:58;7.77;;;3.03;;
20721;SDS011;10522;52.198;9.890;2024-02-04T06:07:29;3.33;;;1.93;;
20721;SDS011;10522;52.198;9.890;2024-02-04T06:09:55;3.67;;;2.70;;
20721;SDS011;10522;52.198;9.890;2024-02-04T06:12:25;4.00;;;2.50;;
20721;SDS011;10522;52.198;9.890;2024-02-04T06:14:51;2.20;;;1.80;;
20721;SDS011;10522;52.198;9.890;2024-02-04T06:17:17;3.33;;;2.47;;
20721;SDS011;10522;52.198;9.890;2024-02-04T06:19:42;2.73;;;2.17;;
20721;SDS011;10522;52.198;9.890;2024-02-04T06:22:08;3.07;;;1.70;;
20721;SDS011;10522;52.198;9.890;2024-02-04T06:24:34;3.33;;;2.00;;
20721;SDS011;10522;52.198;9.890;2024-02-04T06:27:02;2.20;;;1.77;;
20721;SDS011;10522;52.198;9.890;2024-02-04T06:29:29;2.63;;;1.60;;
20721;SDS011;10522;52.198;9.890;2024-02-04T06:31:55;4.37;;;2.00;;
20721;SDS011;10522;52.198;9.890;2024-02-04T06:34:21;3.10;;;2.50;;
20721;SDS011;10522;52.198;9.890;2024-02-04T06:36:47;4.50;;;2.63;;
20721;SDS011;10522;52.198;9.890;2024-02-04T06:39:16;4.93;;;2.07;;
20721;SDS011;10522;52.198;9.890;2024-02-04T06:41:41;6.00;;;2.47;;
20721;SDS011;10522;52.198;9.890;2024-02-04T06:44:08;4.33;;;1.87;;
20721;SDS011;10522;52.198;9.890;2024-02-04T06:46:39;3.80;;;1.60;;
20721;SDS011;10522;52.198;9.890;2024-02-04T06:49:25;3.23;;;2.10;;
20721;SDS011;10522;52.198;9.890;2024-02-04T06:51:52;3.03;;;1.90;;
20721;SDS011;10522;52.198;9.890;2024-02-04T06:54:59;3.47;;;1.70;;
20721;SDS011;10522;52.198;9.890;2024-02-04T06:57:36;6.73;;;2.03;;
20721;SDS011;10522;52.198;9.890;2024-02-04T07:00:03;3.90;;;2.03;;
20721;SDS011;10522;52.198;9.890;2024-02-04T07:02:37;4.87;;;2.30;;
20721;SDS011;10522;52.198;9.890;2024-02-04T07:05:03;2.40;;;2.00;;
20721;SDS011;10522;52.198;9.890;2024-02-04T07:07:29;2.10;;;1.10;;
20721;SDS011;10522;52.198;9.890;2024-02-04T07:09:54;3.23;;;1.47;;
20721;SDS011;10522;52.198;9.890;2024-02-04T07:12:22;2.50;;;1.53;;
20721;SDS011;10522;52.198;9.890;2024-02-04T07:14:48;1.97;;;1.30;;
20721;SDS011;10522;52.198;9.890;2024-02-04T07:17:13;3.30;;;1.37;;
20721;SDS011;10522;52.198;9.890;2024-02-04T07:19:39;2.63;;;1.50;;
20721;SDS011;10522;52.198;9.890;2024-02-04T07:22:04;5.40;;;1.30;;
20721;SDS011;10522;52.198;9.890;2024-02-04T07:24:30;3.67;;;1.37;;
20721;SDS011;10522;52.198;9.890;2024-02-04T07:26:55;2.93;;;1.20;;
20721;SDS011;10522;52.198;9.890;2024-02-04T07:29:26;4.07;;;1.40;;
20721;SDS011;10522;52.198;9.890;2024-02-04T07:31:51;2.40;;;1.20;;
20721;SDS011;10522;52.198;9.890;2024-02-04T07:34:17;2.57;;;1.30;;
20721;SDS011;10522;52.198;9.890;2024-02-04T07:36:42;3.27;;;1.30;;
20721;SDS011;10522;52.198;9.890;2024-02-04T07:39:10;5.70;;;1.40;;
20721;SDS011;10522;52.198;9.890;2024-02-04T07:41:40;3.80;;;1.77;;
20721;SDS011;10522;52.198;9.890;2024-02-04T07:44:07;2.27;;;1.40;;
20721;SDS011;10522;52.198;9.890;2024-02-04T07:46:32;1.70;;;1.50;;
20721;SDS011;10522;52.198;9.890;2024-02-04T07:48:58;5.13;;;1.57;;
20721;SDS011;10522;52.198;9.890;2024-02-04T07:51:29;1.27;;;1.13;;
20721;SDS011;10522;52.198;9.890;2024-02-04T07:53:55;1.77;;;1.30;;
20721;SDS011;10522;52.198;9.890;2024-02-04T07:56:21;1.47;;;1.10;;
20721;SDS011;10522;52.198;9.890;2024-02-04T07:58:51;2.97;;;1.53;;
20721;SDS011;10522;52.198;9.890;2024-02-04T08:01:17;2.97;;;1.47;;
20721;SDS011;10522;52.198;9.890;2024-02-04T08:03:44;2.23;;;1.30;;
20721;SDS011;10522;52.198;9.890;2024-02-04T08:06:11;2.37;;;1.50;;
20721;SDS011;10522;52.198;9.890;2024-02-04T08:08:37;3.43;;;1.13;;
20721;SDS011;10522;52.198;9.890;2024-02-04T08:11:06;5.00;;;1.23;;
20721;SDS011;10522;52.198;9.890;2024-02-04T08:13:31;2.87;;;1.30;;
20721;SDS011;10522;52.198;9.890;2024-02-04T08:15:57;4.07;;;1.53;;
20721;SDS011;10522;52.198;9.890;2024-02-04T08:18:23;4.13;;;1.03;;
20721;SDS011;10522;52.198;9.890;2024-02-04T08:20:48;1.30;;;1.20;;
20721;SDS011;10522;52.198;9.890;2024-02-04T08:23:14;2.77;;;1.23;;
20721;SDS011;10522;52.198;9.890;2024-02-04T08:25:40;2.60;;;0.93;;
20721;SDS011;10522;52.198;9.890;2024-02-04T08:28:06;1.23;;;0.70;;
20721;SDS011;10522;52.198;9.890;2024-02-04T08:30:32;2.50;;;1.23;;
20721;SDS011;10522;52.198;9.890;2024-02-04T08:32:57;2.10;;;0.90;;
20721;SDS011;10522;52.198;9.890;2024-02-04T08:35:23;4.37;;;0.63;;
20721;SDS011;10522;52.198;9.890;2024-02-04T08:37:48;1.80;;;0.93;;
20721;SDS011;10522;52.198;9.890;2024-02-04T08:40:14;5.90;;;1.20;;
20721;SDS011;10522;52.198;9.890;2024-02-04T08:42:39;6.90;;;1.53;;
20721;SDS011;10522;52.198;9.890;2024-02-04T08:45:05;4.43;;;1.20;;
20721;SDS011;10522;52.198;9.890;2024-02-04T08:47:31;6.30;;;1.37;;
20721;SDS011;10522;52.198;9.890;2024-02-04T08:49:57;5.60;;;1.83;;
20721;SDS011;10522;52.198;9.890;2024-02-04T08:52:25;6.80;;;1.30;;
20721;SDS011;10522;52.198;9.890;2024-02-04T08:54:51;3.73;;;1.33;;
20721;SDS011;10522;52.198;9.890;2024-02-04T08:57:17;8.30;;;1.50;;
20721;SDS011;10522;52.198;9.890;2024-02-04T08:59:42;9.30;;;1.73;;
20721;SDS011;10522;52.198;9.890;2024-02-04T09:02:08;2.70;;;1.00;;
20721;SDS011;10522;52.198;9.890;2024-02-04T09:04:34;5.87;;;1.20;;
20721;SDS011;10522;52.198;9.890;2024-02-04T09:07:05;3.87;;;1.57;;
20721;SDS011;10522;52.198;9.890;2024-02-04T09:09:39;2.57;;;1.10;;
20721;SDS011;10522;52.198;9.890;2024-02-04T09:12:05;1.97;;;1.30;;
20721;SDS011;10522;52.198;9.890;2024-02-04T09:14:30;6.70;;;1.87;;
20721;SDS011;10522;52.198;9.890;2024-02-04T09:16:56;4.60;;;1.27;;
20721;SDS011;10522;52.198;9.890;2024-02-04T09:19:22;3.07;;;1.47;;
20721;SDS011;10522;52.198;9.890;2024-02-04T09:21:49;6.20;;;2.20;;
20721;SDS011;10522;52.198;9.890;2024-02-04T09:24:16;6.43;;;1.47;;
20721;SDS011;10522;52.198;9.890;2024-02-04T09:26:46;6.27;;;1.50;;
20721;SDS011;10522;52.198;9.890;2024-02-04T09:32:22;2.67;;;1.33;;
20721;SDS011;10522;52.198;9.890;2024-02-04T09:34:48;5.93;;;1.83;;
20721;SDS011;10522;52.198;9.890;2024-02-04T09:37:14;3.50;;;1.30;;
20721;SDS011;10522;52.198;9.890;2024-02-04T09:39:39;5.03;;;1.80;;
20721;SDS011;10522;52.198;9.890;2024-02-04T09:42:06;3.97;;;1.50;;
20721;SDS011;10522;52.198;9.890;2024-02-04T09:44:32;6.83;;;1.70;;
20721;SDS011;10522;52.198;9.890;2024-02-04T09:47:02;9.80;;;1.80;;
20721;SDS011;10522;52.198;9.890;2024-02-04T09:49:36;3.97;;;1.53;;
20721;SDS011;10522;52.198;9.890;2024-02-04T09:52:09;6.57;;;1.43;;
20721;SDS011;10522;52.198;9.890;2024-02-04T09:54:49;9.00;;;1.50;;
20721;SDS011;10522;52.198;9.890;2024-02-04T09:57:18;3.57;;;1.03;;
20721;SDS011;10522;52.198;9.890;2024-02-04T10:00:03;5.87;;;1.70;;
20721;SDS011;10522;52.198;9.890;2024-02-04T10:02:30;2.20;;;0.80;;
20721;SDS011;10522;52.198;9.890;2024-02-04T10:04:58;9.07;;;1.93;;
20721;SDS011;10522;52.198;9.890;2024-02-04T10:07:24;7.60;;;1.77;;
20721;SDS011;10522;52.198;9.890;2024-02-04T10:09:50;8.83;;;1.60;;
20721;SDS011;10522;52.198;9.890;2024-02-04T10:12:18;5.17;;;1.83;;
20721;SDS011;10522;52.198;9.890;2024-02-04T10:14:44;4.83;;;1.40;;
20721;SDS011;10522;52.198;9.890;2024-02-04T10:17:10;5.50;;;1.57;;
20721;SDS011;10522;52.198;9.890;2024-02-04T10:19:40;8.93;;;2.70;;
20721;SDS011;10522;52.198;9.890;2024-02-04T10:22:05;8.03;;;1.27;;
20721;SDS011;10522;52.198;9.890;2024-02-04T10:24:34;2.93;;;1.07;;
20721;SDS011;10522;52.198;9.890;2024-02-04T10:26:59;9.73;;;1.67;;
20721;SDS011;10522;52.198;9.890;2024-02-04T10:29:26;6.70;;;2.37;;
20721;SDS011;10522;52.198;9.890;2024-02-04T10:31:53;8.60;;;1.47;;
20721;SDS011;10522;52.198;9.890;2024-02-04T10:34:22;5.30;;;1.57;;
20721;SDS011;10522;52.198;9.890;2024-02-04T10:36:48;3.90;;;2.10;;
20721;SDS011;10522;52.198;9.890;2024-02-04T10:39:14;4.83;;;1.40;;
20721;SDS011;10522;52.198;9.890;2024-02-04T10:41:43;4.60;;;1.47;;
20721;SDS011;10522;52.198;9.890;2024-02-04T10:44:16;5.60;;;1.50;;
20721;SDS011;10522;52.198;9.890;2024-02-04T10:46:42;4.70;;;1.47;;
20721;SDS011;10522;52.198;9.890;2024-02-04T10:49:13;6.03;;;1.53;;
20721;SDS011;10522;52.198;9.890;2024-02-04T10:51:39;3.83;;;1.57;;
20721;SDS011;10522;52.198;9.890;2024-02-04T10:54:06;3.03;;;1.43;;
20721;SDS011;10522;52.198;9.890;2024-02-04T10:59:10;6.90;;;1.30;;
20721;SDS011;10522;52.198;9.890;2024-02-04T11:01:40;2.93;;;1.40;;
20721;SDS011;10522;52.198;9.890;2024-02-04T11:04:08;3.47;;;1.40;;
20721;SDS011;10522;52.198;9.890;2024-02-04T11:06:36;5.50;;;1.40;;
20721;SDS011;10522;52.198;9.890;2024-02-04T11:09:03;2.47;;;1.10;;
20721;SDS011;10522;52.198;9.890;2024-02-04T11:11:31;3.93;;;1.47;;
20721;SDS011;10522;52.198;9.890;2024-02-04T11:13:59;3.77;;;1.57;;
20721;SDS011;10522;52.198;9.890;2024-02-04T11:16:31;7.17;;;1.50;;
20721;SDS011;10522;52.198;9.890;2024-02-04T11:27:43;3.93;;;1.40;;
20721;SDS011;10522;52.198;9.890;2024-02-04T11:30:09;2.20;;;1.00;;
20721;SDS011;10522;52.198;9.890;2024-02-04T11:32:35;8.73;;;1.63;;
20721;SDS011;10522;52.198;9.890;2024-02-04T11:35:01;2.50;;;1.10;;
20721;SDS011;10522;52.198;9.890;2024-02-04T11:37:28;3.90;;;1.60;;
20721;SDS011;10522;52.198;9.890;2024-02-04T11:39:54;2.57;;;1.00;;
20721;SDS011;10522;52.198;9.890;2024-02-04T11:42:25;6.10;;;1.30;;
20721;SDS011;10522;52.198;9.890;2024-02-04T11:45:06;4.57;;;1.30;;
20721;SDS011;10522;52.198;9.890;2024-02-04T11:47:33;5.53;;;1.80;;
20721;SDS011;10522;52.198;9.890;2024-02-04T11:49:59;5.77;;;1.07;;
20721;SDS011;10522;52.198;9.890;2024-02-04T11:52:27;5.23;;;1.33;;
20721;SDS011;10522;52.198;9.890;2024-02-04T11:54:53;4.23;;;1.50;;
20721;SDS011;10522;52.198;9.890;2024-02-04T11:57:19;1.10;;;1.00;;
20721;SDS011;10522;52.198;9.890;2024-02-04T11:59:45;2.67;;;1.13;;
20721;SDS011;10522;52.198;9.890;2024-02-04T12:02:15;1.90;;;0.93;;
20721;SDS011;10522;52.198;9.890;2024-02-04T12:04:43;4.50;;;1.67;;
20721;SDS011;10522;52.198;9.890;2024-02-04T12:07:14;1.67;;;0.97;;
20721;SDS011;10522;52.198;9.890;2024-02-04T12:09:41;4.60;;;1.60;;
20721;SDS011;10522;52.198;9.890;2024-02-04T12:12:08;1.70;;;0.90;;
20721;SDS011;10522;52.198;9.890;2024-02-04T12:14:36;3.40;;;0.93;;
20721;SDS011;10522;52.198;9.890;2024-02-04T12:17:09;1.03;;;0.93;;
20721;SDS011;10522;52.198;9.890;2024-02-04T12:19:39;9.97;;;1.50;;
20721;SDS011;10522;52.198;9.890;2024-02-04T12:22:07;4.53;;;1.10;;
20721;SDS011;10522;52.198;9.890;2024-02-04T12:24:35;3.90;;;1.17;;
20721;SDS011;10522;52.198;9.890;2024-02-04T12:27:04;4.13;;;1.33;;
20721;SDS011;10522;52.198;9.890;2024-02-04T12:29:32;3.40;;;1.10;;
20721;SDS011;10522;52.198;9.890;2024-02-04T12:31:58;2.80;;;0.93;;
20721;SDS011;10522;52.198;9.890;2024-02-04T12:34:25;2.20;;;0.83;;
20721;SDS011;10522;52.198;9.890;2024-02-04T12:36:58;2.20;;;1.23;;
20721;SDS011;10522;52.198;9.890;2024-02-04T12:39:27;1.90;;;0.90;;
20721;SDS011;10522;52.198;9.890;2024-02-04T12:41:57;1.33;;;1.10;;
20721;SDS011;10522;52.198;9.890;2024-02-04T12:44:24;1.03;;;0.80;;
20721;SDS011;10522;52.198;9.890;2024-02-04T12:46:52;4.53;;;1.60;;
20721;SDS011;10522;52.198;9.890;2024-02-04T12:49:19;3.00;;;1.20;;
20721;SDS011;10522;52.198;9.890;2024-02-04T12:51:52;2.47;;;0.97;;
20721;SDS011;10522;52.198;9.890;2024-02-04T12:54:18;1.00;;;0.83;;
20721;SDS011;10522;52.198;9.890;2024-02-04T12:56:51;4.17;;;1.07;;
20721;SDS011;10522;52.198;9.890;2024-02-04T13:04:48;1.63;;;1.30;;
20721;SDS011;10522;52.198;9.890;2024-02-04T13:07:14;1.80;;;0.97;;
20721;SDS011;10522;52.198;9.890;2024-02-04T13:09:41;2.97;;;0.70;;
20721;SDS011;10522;52.198;9.890;2024-02-04T13:12:08;2.70;;;1.30;;
20721;SDS011;10522;52.198;9.890;2024-02-04T13:14:38;1.77;;;1.03;;
20721;SDS011;10522;52.198;9.890;2024-02-04T13:17:04;2.10;;;1.27;;
20721;SDS011;10522;52.198;9.890;2024-02-04T13:19:34;2.63;;;1.30;;
20721;SDS011;10522;52.198;9.890;2024-02-04T13:22:01;2.77;;;1.00;;
20721;SDS011;10522;52.198;9.890;2024-02-04T13:24:28;1.50;;;1.10;;
20721;SDS011;10522;52.198;9.890;2024-02-04T13:26:54;1.93;;;1.50;;
20721;SDS011;10522;52.198;9.890;2024-02-04T13:29:20;3.73;;;1.20;;
20721;SDS011;10522;52.198;9.890;2024-02-04T13:31:45;3.87;;;1.30;;
20721;SDS011;10522;52.198;9.890;2024-02-04T13:34:11;3.33;;;1.40;;
20721;SDS011;10522;52.198;9.890;2024-02-04T13:36:36;1.50;;;1.13;;
20721;SDS011;10522;52.198;9.890;2024-02-04T13:39:03;3.90;;;1.47;;
20721;SDS011;10522;52.198;9.890;2024-02-04T13:41:30;1.40;;;1.30;;
20721;SDS011;10522;52.198;9.890;2024-02-04T13:43:56;6.00;;;1.70;;
20721;SDS011;10522;52.198;9.890;2024-02-04T13:46:23;4.00;;;1.43;;
20721;SDS011;10522;52.198;9.890;2024-02-04T13:48:49;2.53;;;1.50;;
20721;SDS011;10522;52.198;9.890;2024-02-04T13:51:14;3.63;;;1.20;;
20721;SDS011;10522;52.198;9.890;2024-02-04T13:53:40;3.60;;;1.43;;
20721;SDS011;10522;52.198;9.890;2024-02-04T13:56:05;3.70;;;1.60;;
20721;SDS011;10522;52.198;9.890;2024-02-04T13:58:31;2.40;;;1.57;;
20721;SDS011;10522;52.198;9.890;2024-02-04T14:00:57;2.17;;;1.50;;
20721;SDS011;10522;52.198;9.890;2024-02-04T14:03:23;1.87;;;1.77;;
20721;SDS011;10522;52.198;9.890;2024-02-04T14:05:49;5.40;;;1.73;;
20721;SDS011;10522;52.198;9.890;2024-02-04T14:08:15;5.23;;;1.57;;
20721;SDS011;10522;52.198;9.890;2024-02-04T14:10:40;3.90;;;1.67;;
20721;SDS011;10522;52.198;9.890;2024-02-04T14:13:06;2.60;;;1.83;;
20721;SDS011;10522;52.198;9.890;2024-02-04T14:15:31;4.60;;;2.30;;
20721;SDS011;10522;52.198;9.890;2024-02-04T14:17:57;2.80;;;2.27;;
20721;SDS011;10522;52.198;9.890;2024-02-04T14:20:24;6.13;;;1.73;;
20721;SDS011;10522;52.198;9.890;2024-02-04T14:22:50;5.77;;;2.10;;
20721;SDS011;10522;52.198;9.890;2024-02-04T14:25:16;6.47;;;2.57;;
20721;SDS011;10522;52.198;9.890;2024-02-04T14:27:42;8.77;;;2.57;;
20721;SDS011;10522;52.198;9.890;2024-02-04T14:30:07;4.67;;;2.30;;
20721;SDS011;10522;52.198;9.890;2024-02-04T14:32:34;5.73;;;2.63;;
20721;SDS011;10522;52.198;9.890;2024-02-04T14:34:59;3.83;;;2.23;;
20721;SDS011;10522;52.198;9.890;2024-02-04T14:37:25;3.17;;;2.13;;
20721;SDS011;10522;52.198;9.890;2024-02-04T14:39:51;3.63;;;2.40;;
20721;SDS011;10522;52.198;9.890;2024-02-04T14:42:17;4.27;;;2.87;;
20721;SDS011;10522;52.198;9.890;2024-02-04T14:44:46;7.80;;;3.03;;
20721;SDS011;10522;52.198;9.890;2024-02-04T14:47:11;4.47;;;2.03;;
20721;SDS011;10522;52.198;9.890;2024-02-04T14:49:37;2.90;;;2.13;;
20721;SDS011;10522;52.198;9.890;2024-02-04T14:52:02;2.93;;;1.70;;
20721;SDS011;10522;52.198;9.890;2024-02-04T14:54:28;7.80;;;2.03;;
20721;SDS011;10522;52.198;9.890;2024-02-04T14:56:54;5.57;;;3.50;;
20721;SDS011;10522;52.198;9.890;2024-02-04T14:59:19;4.73;;;2.07;;
20721;SDS011;10522;52.198;9.890;2024-02-04T15:01:45;6.00;;;2.27;;
20721;SDS011;10522;52.198;9.890;2024-02-04T15:04:11;2.30;;;2.10;;
20721;SDS011;10522;52.198;9.890;2024-02-04T15:06:38;3.90;;;2.20;;
20721;SDS011;10522;52.198;9.890;2024-02-04T15:09:04;3.93;;;1.73;;
20721;SDS011;10522;52.198;9.890;2024-02-04T15:11:30;5.13;;;1.83;;